createdAt,value
2023-05-23T00:01:58.832Z,60.05
2023-05-23T00:04:45.954Z,60.24
2023-05-23T00:07:33.502Z,60.22
2023-05-23T00:10:20.103Z,60.47
2023-05-23T00:13:09.530Z,60.51
2023-05-23T00:15:55.919Z,60.66
2023-05-23T00:18:43.259Z,60.86
2023-05-23T00:21:30.824Z,61.02
2023-05-23T00:24:18.785Z,60.94
2023-05-23T00:27:05.879Z,60.87
2023-05-23T00:29:52.207Z,61.00
2023-05-23T00:32:38.789Z,61.01
2023-05-23T00:35:26.029Z,61.50
2023-05-23T00:38:12.781Z,61.62
2023-05-23T00:40:59.365Z,61.53
2023-05-23T00:43:46.849Z,61.68
2023-05-23T00:46:33.382Z,61.88
2023-05-23T00:49:20.732Z,62.01
2023-05-23T00:52:07.874Z,62.31
2023-05-23T00:54:54.583Z,62.34
2023-05-23T00:57:41.735Z,62.38
2023-05-23T01:00:29.026Z,62.29
2023-05-23T01:03:18.589Z,62.55
2023-05-23T01:06:05.361Z,62.69
2023-05-23T01:08:52.263Z,62.95
2023-05-23T01:11:44.977Z,63.45
2023-05-23T01:14:42.970Z,63.19
2023-05-23T01:17:42.233Z,63.31
2023-05-23T01:20:34.618Z,63.28
2023-05-23T01:23:55.845Z,63.51
2023-05-23T01:26:53.972Z,63.48
2023-05-23T01:29:49.971Z,63.90
2023-05-23T01:32:37.538Z,63.72
2023-05-23T01:35:28.087Z,63.74
2023-05-23T01:38:14.601Z,63.56
2023-05-23T01:41:01.268Z,64.02
2023-05-23T01:43:48.114Z,63.94
2023-05-23T01:46:39.219Z,64.43
2023-05-23T01:49:26.890Z,64.62
2023-05-23T01:52:15.636Z,64.36
2023-05-23T01:55:09.629Z,64.48
2023-05-23T01:57:58.739Z,64.43
2023-05-23T02:00:46.011Z,64.83
2023-05-23T02:03:32.988Z,65.13
2023-05-23T02:06:19.676Z,65.02
2023-05-23T02:09:06.659Z,65.03
2023-05-23T02:11:53.502Z,65.01
2023-05-23T02:14:42.314Z,65.08
2023-05-23T02:17:29.068Z,65.24
2023-05-23T02:20:15.944Z,65.28
2023-05-23T02:23:02.373Z,65.48
2023-05-23T02:25:49.730Z,65.06
2023-05-23T02:28:36.066Z,65.44
2023-05-23T02:31:22.610Z,65.96
2023-05-23T02:34:09.214Z,65.40
2023-05-23T02:36:55.634Z,65.36
2023-05-23T02:39:43.428Z,65.59
2023-05-23T02:42:30.115Z,65.71
2023-05-23T02:45:17.771Z,66.10
2023-05-23T02:48:04.948Z,66.26
2023-05-23T02:50:51.569Z,66.39
2023-05-23T02:53:38.415Z,66.23
2023-05-23T02:56:24.699Z,66.90
2023-05-23T02:59:12.531Z,66.73
2023-05-23T03:01:59.014Z,66.77
2023-05-23T03:04:46.510Z,67.08
2023-05-23T03:07:34.060Z,66.87
2023-05-23T03:10:21.288Z,67.25
2023-05-23T03:13:08.445Z,67.47
2023-05-23T03:15:55.242Z,66.61
2023-05-23T03:18:42.279Z,66.61
2023-05-23T03:21:29.224Z,66.73
2023-05-23T03:24:15.952Z,66.85
2023-05-23T03:27:04.425Z,66.94
2023-05-23T03:29:51.541Z,66.88
2023-05-23T03:32:38.328Z,66.61
2023-05-23T03:35:25.174Z,66.63
2023-05-23T03:38:12.109Z,66.57
2023-05-23T03:40:58.829Z,66.26
2023-05-23T03:43:45.419Z,66.13
2023-05-23T03:46:32.365Z,66.02
2023-05-23T03:49:19.222Z,65.95
2023-05-23T03:52:05.996Z,65.93
2023-05-23T03:54:54.346Z,65.56
2023-05-23T03:57:41.376Z,65.58
2023-05-23T04:00:28.169Z,65.26
2023-05-23T04:03:15.770Z,65.20
2023-05-23T04:06:02.639Z,65.12
2023-05-23T04:08:49.578Z,64.75
2023-05-23T04:11:36.752Z,64.72
2023-05-23T04:14:24.413Z,64.54
2023-05-23T04:17:12.293Z,64.09
2023-05-23T04:19:59.397Z,63.84
2023-05-23T04:22:46.029Z,64.07
2023-05-23T04:25:34.291Z,63.46
2023-05-23T04:28:28.657Z,63.49
2023-05-23T04:31:15.102Z,63.51
2023-05-23T04:34:02.838Z,63.04
2023-05-23T04:36:50.548Z,62.91
2023-05-23T04:39:37.289Z,62.91
2023-05-23T04:42:42.547Z,62.38
2023-05-23T04:45:41.833Z,62.41
2023-05-23T04:48:44.820Z,62.21
2023-05-23T04:51:31.974Z,61.59
2023-05-23T04:54:28.733Z,61.55
2023-05-23T04:57:17.122Z,61.31
2023-05-23T05:00:10.294Z,60.77
2023-05-23T05:02:57.222Z,60.49
2023-05-23T05:05:47.830Z,60.15
2023-05-23T05:08:34.996Z,59.92
2023-05-23T05:11:22.184Z,59.31
2023-05-23T05:14:08.735Z,58.97
2023-05-23T05:16:57.753Z,58.58
2023-05-23T05:19:48.161Z,57.87
2023-05-23T05:22:40.578Z,57.31
2023-05-23T05:25:31.989Z,56.96
2023-05-23T05:28:18.724Z,56.21
2023-05-23T05:31:10.267Z,55.87
2023-05-23T05:33:57.130Z,54.91
2023-05-23T05:36:48.045Z,54.01
2023-05-23T05:39:36.429Z,53.60
2023-05-23T05:42:23.748Z,53.12
2023-05-23T05:45:11.656Z,52.73
2023-05-23T05:47:59.531Z,52.42
2023-05-23T05:50:46.943Z,51.77
2023-05-23T05:53:33.825Z,51.26
2023-05-23T05:56:22.763Z,50.65
2023-05-23T05:59:09.292Z,50.13
2023-05-23T06:01:57.655Z,49.50
2023-05-23T06:04:44.400Z,48.93
2023-05-23T06:07:30.984Z,48.48
2023-05-23T06:10:17.526Z,47.84
2023-05-23T06:13:04.490Z,47.62
2023-05-23T06:15:51.185Z,47.09
2023-05-23T06:18:38.154Z,46.23
2023-05-23T06:21:24.889Z,45.80
2023-05-23T06:24:11.537Z,45.17
2023-05-23T06:26:58.117Z,44.46
2023-05-23T06:29:44.480Z,44.01
2023-05-23T06:32:31.111Z,43.89
2023-05-23T06:35:19.526Z,43.19
2023-05-23T06:38:06.128Z,42.86
2023-05-23T06:40:53.398Z,41.82
2023-05-23T06:43:39.957Z,41.12
2023-05-23T06:46:34.612Z,40.30
2023-05-23T06:49:21.155Z,39.35
2023-05-23T06:52:08.140Z,37.99
2023-05-23T06:54:54.570Z,37.33
2023-05-23T06:57:41.367Z,37.01
2023-05-23T07:00:27.975Z,36.64
2023-05-23T07:03:22.501Z,36.47
2023-05-23T07:06:10.028Z,36.30
2023-05-23T07:08:58.934Z,35.76
2023-05-23T07:11:45.709Z,35.73
2023-05-23T07:14:32.388Z,35.21
2023-05-23T07:17:19.110Z,35.22
2023-05-23T07:20:06.975Z,35.43
2023-05-23T07:22:54.685Z,34.34
2023-05-23T07:25:50.284Z,34.10
2023-05-23T07:28:50.672Z,35.00
2023-05-23T07:31:37.340Z,35.34
2023-05-23T07:34:24.256Z,35.20
2023-05-23T07:37:14.116Z,33.59
2023-05-23T07:40:02.640Z,33.71
2023-05-23T07:42:49.702Z,33.28
2023-05-23T07:45:35.968Z,32.09
2023-05-23T07:48:22.563Z,30.60
2023-05-23T07:51:08.976Z,30.28
2023-05-23T07:53:55.706Z,29.87
2023-05-23T07:56:43.592Z,29.96
2023-05-23T07:59:30.321Z,30.42
2023-05-23T08:02:17.696Z,30.50
2023-05-23T08:05:05.856Z,30.01
2023-05-23T08:07:54.380Z,30.12
2023-05-23T08:10:41.729Z,29.26
2023-05-23T08:13:31.707Z,28.96
2023-05-23T08:16:41.387Z,29.23
2023-05-23T08:19:34.012Z,28.94
2023-05-23T08:22:21.662Z,28.73
2023-05-23T08:25:08.781Z,27.61
2023-05-23T08:27:58.399Z,27.52
2023-05-23T08:30:58.420Z,27.25
2023-05-23T08:33:45.102Z,27.24
2023-05-23T08:36:36.517Z,27.46
2023-05-23T08:39:24.057Z,28.02
2023-05-23T08:42:23.271Z,27.92
2023-05-23T08:45:10.928Z,27.50
2023-05-23T08:48:00.906Z,27.56
2023-05-23T08:50:51.148Z,27.49
2023-05-23T08:53:42.685Z,27.14
2023-05-23T08:56:29.334Z,27.10
2023-05-23T08:59:17.124Z,26.16
2023-05-23T09:02:11.242Z,26.22
2023-05-23T09:04:59.844Z,25.77
2023-05-23T09:07:48.156Z,25.42
2023-05-23T09:10:35.934Z,25.28
2023-05-23T09:13:23.552Z,25.52
2023-05-23T09:16:12.816Z,25.43
2023-05-23T09:19:14.144Z,25.57
2023-05-23T09:22:04.270Z,25.32
2023-05-23T09:24:57.060Z,24.84
2023-05-23T09:27:45.926Z,24.77
2023-05-23T09:30:34.556Z,25.25
2023-05-23T09:33:21.170Z,25.64
2023-05-23T09:36:08.062Z,25.87
2023-05-23T09:38:54.757Z,25.84
2023-05-23T09:41:41.580Z,25.88
2023-05-23T09:44:28.574Z,25.28
2023-05-23T09:47:18.401Z,25.82
2023-05-23T09:50:06.256Z,25.92
2023-05-23T09:52:54.351Z,25.65
2023-05-23T09:55:41.084Z,25.48
2023-05-23T09:58:30.217Z,25.23
2023-05-23T10:01:18.273Z,24.94
2023-05-23T10:04:06.846Z,24.86
2023-05-23T10:07:08.075Z,24.45
2023-05-23T10:09:59.389Z,24.73
2023-05-23T10:12:50.210Z,24.79
2023-05-23T10:15:41.086Z,25.45
2023-05-23T10:18:30.337Z,25.28
2023-05-23T10:21:19.310Z,25.65
2023-05-23T10:24:07.365Z,24.85
2023-05-23T10:26:55.666Z,24.85
2023-05-23T10:29:44.008Z,24.76
2023-05-23T10:32:31.738Z,24.27
2023-05-23T10:35:30.786Z,24.78
2023-05-23T10:38:39.132Z,24.34
2023-05-23T10:41:41.589Z,24.04
2023-05-23T10:44:31.932Z,23.88
2023-05-23T10:47:31.158Z,23.27
2023-05-23T10:50:34.871Z,23.69
2023-05-23T10:53:23.352Z,23.77
2023-05-23T10:56:11.788Z,23.77
2023-05-23T10:58:58.734Z,24.13
2023-05-23T11:01:45.279Z,24.18
2023-05-23T11:04:32.286Z,24.01
2023-05-23T11:07:34.089Z,24.16
2023-05-23T11:10:20.685Z,24.32
2023-05-23T11:13:08.054Z,24.59
2023-05-23T11:15:54.543Z,24.54
2023-05-23T11:18:41.165Z,24.96
2023-05-23T11:21:29.841Z,25.04
2023-05-23T11:24:16.684Z,25.02
2023-05-23T11:27:04.234Z,25.53
2023-05-23T11:30:11.131Z,25.67
2023-05-23T11:32:57.615Z,25.39
2023-05-23T11:35:48.934Z,25.80
2023-05-23T11:38:36.169Z,25.68
2023-05-23T11:41:22.848Z,25.89
2023-05-23T11:44:13.667Z,25.94
2023-05-23T11:47:05.000Z,26.12
2023-05-23T11:49:51.751Z,26.47
2023-05-23T11:52:38.431Z,26.49
2023-05-23T11:55:24.744Z,26.86
2023-05-23T11:58:11.644Z,26.95
2023-05-23T12:01:03.427Z,26.77
2023-05-23T12:03:51.735Z,26.74
2023-05-23T12:06:42.191Z,26.82
2023-05-23T12:09:28.957Z,26.84
2023-05-23T12:12:16.526Z,26.90
2023-05-23T12:15:05.066Z,26.67
2023-05-23T12:17:54.187Z,26.84
2023-05-23T12:20:41.974Z,27.09
2023-05-23T12:23:31.273Z,27.00
2023-05-23T12:26:18.822Z,26.77
2023-05-23T12:29:05.046Z,26.74
2023-05-23T12:31:52.106Z,26.91
2023-05-23T12:34:43.064Z,26.58
2023-05-23T12:37:30.082Z,26.40
2023-05-23T12:40:18.322Z,26.26
2023-05-23T12:43:09.639Z,26.17
2023-05-23T12:45:56.210Z,26.40
2023-05-23T12:48:42.700Z,25.90
2023-05-23T12:51:29.552Z,25.51
2023-05-23T12:54:16.450Z,25.82
2023-05-23T12:57:03.104Z,25.96
2023-05-23T12:59:49.644Z,26.05
2023-05-23T13:02:37.456Z,25.81
2023-05-23T13:05:24.507Z,26.04
2023-05-23T13:08:12.410Z,25.91
2023-05-23T13:10:59.344Z,25.99
2023-05-23T13:13:46.846Z,25.95
2023-05-23T13:16:33.788Z,26.20
2023-05-23T13:19:20.566Z,26.78
2023-05-23T13:22:10.470Z,26.83
2023-05-23T13:24:57.071Z,26.73
2023-05-23T13:27:43.729Z,26.67
2023-05-23T13:30:30.157Z,26.24
2023-05-23T13:33:16.895Z,26.45
2023-05-23T13:36:04.042Z,26.11
2023-05-23T13:38:51.089Z,26.04
2023-05-23T13:41:39.255Z,26.36
2023-05-23T13:44:26.003Z,26.19
2023-05-23T13:47:14.784Z,26.34
2023-05-23T13:50:01.521Z,25.95
2023-05-23T13:52:49.528Z,26.07
2023-05-23T13:55:36.638Z,26.34
2023-05-23T13:58:23.180Z,25.99
2023-05-23T14:01:09.490Z,26.29
2023-05-23T14:03:56.353Z,26.39
2023-05-23T14:06:42.882Z,26.65
2023-05-23T14:09:29.792Z,26.80
2023-05-23T14:12:24.041Z,27.28
2023-05-23T14:15:11.517Z,27.41
2023-05-23T14:17:58.409Z,26.73
2023-05-23T14:20:45.152Z,27.12
2023-05-23T14:23:31.970Z,27.02
2023-05-23T14:26:18.925Z,27.38
2023-05-23T14:29:05.801Z,27.38
2023-05-23T14:31:52.317Z,27.58
2023-05-23T14:34:38.888Z,27.70
2023-05-23T14:37:25.778Z,27.94
2023-05-23T14:40:14.281Z,27.80
2023-05-23T14:43:01.015Z,27.71
2023-05-23T14:45:47.972Z,28.06
2023-05-23T14:48:34.871Z,27.61
2023-05-23T14:51:35.082Z,27.53
2023-05-23T14:54:27.934Z,27.52
2023-05-23T14:57:14.610Z,27.60
2023-05-23T15:00:04.118Z,27.49
2023-05-23T15:02:51.480Z,27.36
2023-05-23T15:05:38.098Z,27.65
2023-05-23T15:08:25.845Z,27.34
2023-05-23T15:11:12.204Z,27.21
2023-05-23T15:13:59.744Z,27.55
2023-05-23T15:16:46.470Z,27.73
2023-05-23T15:19:34.759Z,27.56
2023-05-23T15:22:37.893Z,27.81
2023-05-23T15:25:38.749Z,27.68
2023-05-23T15:28:33.386Z,27.52
2023-05-23T15:31:19.962Z,27.69
2023-05-23T15:34:06.508Z,27.71
2023-05-23T15:36:53.216Z,27.81
2023-05-23T15:39:39.631Z,27.58
2023-05-23T15:42:26.545Z,27.26
2023-05-23T15:45:13.289Z,27.52
2023-05-23T15:47:59.804Z,27.72
2023-05-23T15:50:46.774Z,27.64
2023-05-23T15:53:40.133Z,28.09
2023-05-23T15:56:34.646Z,28.18
2023-05-23T15:59:21.374Z,28.40
2023-05-23T16:02:09.349Z,28.47
2023-05-23T16:04:57.646Z,28.69
2023-05-23T16:07:44.512Z,29.08
2023-05-23T16:10:31.090Z,29.46
2023-05-23T16:13:18.107Z,29.77
2023-05-23T16:16:05.697Z,29.92
2023-05-23T16:18:52.408Z,30.09
2023-05-23T16:21:39.292Z,30.05
2023-05-23T16:24:28.220Z,30.05
2023-05-23T16:27:15.068Z,30.18
2023-05-23T16:30:01.998Z,30.37
2023-05-23T16:32:48.830Z,30.42
2023-05-23T16:35:35.683Z,30.46
2023-05-23T16:38:22.659Z,30.71
2023-05-23T16:41:09.863Z,30.94
2023-05-23T16:43:56.419Z,30.87
2023-05-23T16:46:42.872Z,31.73
2023-05-23T16:49:29.254Z,32.06
2023-05-23T16:52:16.677Z,32.30
2023-05-23T16:55:03.949Z,32.74
2023-05-23T16:57:50.748Z,33.24
2023-05-23T17:00:37.291Z,34.60
2023-05-23T17:03:24.084Z,35.79
2023-05-23T17:06:11.503Z,36.76
2023-05-23T17:08:58.071Z,37.85
2023-05-23T17:11:44.944Z,38.86
2023-05-23T17:14:32.505Z,39.50
2023-05-23T17:17:19.246Z,40.10
2023-05-23T17:20:06.301Z,40.91
2023-05-23T17:22:52.850Z,41.39
2023-05-23T17:25:39.473Z,41.53
2023-05-23T17:28:26.523Z,42.26
2023-05-23T17:31:12.875Z,43.52
2023-05-23T17:33:59.258Z,43.67
2023-05-23T17:36:45.608Z,44.18
2023-05-23T17:39:32.410Z,44.81
2023-05-23T17:42:19.147Z,45.88
2023-05-23T17:45:06.786Z,46.19
2023-05-23T17:47:53.516Z,46.19
2023-05-23T17:50:41.067Z,46.85
2023-05-23T17:53:27.966Z,46.94
2023-05-23T17:56:14.656Z,48.25
2023-05-23T17:59:05.310Z,48.65
2023-05-23T18:01:52.222Z,48.81
2023-05-23T18:04:38.996Z,48.89
2023-05-23T18:07:25.443Z,49.77
2023-05-23T18:10:12.589Z,50.51
2023-05-23T18:12:59.326Z,50.42
2023-05-23T18:15:45.798Z,50.43
2023-05-23T18:18:33.109Z,50.91
2023-05-23T18:21:19.491Z,51.31
2023-05-23T18:24:06.646Z,51.32
2023-05-23T18:26:53.503Z,51.62
2023-05-23T18:29:40.170Z,51.67
2023-05-23T18:32:26.671Z,51.78
2023-05-23T18:35:14.685Z,51.76
2023-05-23T18:38:00.898Z,52.19
2023-05-23T18:40:47.567Z,52.51
2023-05-23T18:43:34.324Z,52.50
2023-05-23T18:46:20.878Z,52.61
2023-05-23T18:49:07.737Z,52.76
2023-05-23T18:52:08.227Z,52.79
2023-05-23T18:54:55.029Z,52.84
2023-05-23T18:57:41.459Z,53.26
2023-05-23T19:00:28.312Z,53.96
2023-05-23T19:03:16.192Z,54.51
2023-05-23T19:06:07.032Z,54.21
2023-05-23T19:08:53.938Z,54.54
2023-05-23T19:11:40.759Z,54.48
2023-05-23T19:14:27.596Z,55.22
2023-05-23T19:17:14.429Z,55.50
2023-05-23T19:20:02.845Z,55.59
2023-05-23T19:22:52.196Z,55.83
2023-05-23T19:25:39.463Z,55.80
2023-05-23T19:28:26.360Z,56.01
2023-05-23T19:31:13.257Z,56.10
2023-05-23T19:33:59.928Z,56.35
2023-05-23T19:36:46.740Z,56.41
2023-05-23T19:39:33.394Z,56.65
2023-05-23T19:42:19.843Z,56.73
2023-05-23T19:45:07.729Z,56.88
2023-05-23T19:47:54.287Z,57.03
2023-05-23T19:50:43.470Z,57.06
2023-05-23T19:53:30.303Z,57.31
2023-05-23T19:56:16.887Z,57.78
2023-05-23T19:59:03.143Z,57.77
2023-05-23T20:01:49.931Z,58.38
2023-05-23T20:04:36.998Z,58.11
2023-05-23T20:07:23.396Z,58.16
2023-05-23T20:10:09.953Z,58.25
2023-05-23T20:12:56.762Z,58.39
2023-05-23T20:15:43.271Z,58.48
2023-05-23T20:18:29.545Z,58.66
2023-05-23T20:21:16.287Z,58.52
2023-05-23T20:24:02.642Z,58.71
2023-05-23T20:26:49.766Z,58.88
2023-05-23T20:29:36.526Z,58.92
2023-05-23T20:32:23.068Z,58.97
2023-05-23T20:35:09.974Z,59.51
2023-05-23T20:37:56.233Z,59.61
2023-05-23T20:40:42.937Z,59.64
2023-05-23T20:43:29.747Z,60.13
2023-05-23T20:46:16.169Z,60.56
2023-05-23T20:49:03.515Z,60.95
2023-05-23T20:51:50.507Z,61.74
2023-05-23T20:54:37.525Z,62.36
2023-05-23T20:57:24.217Z,62.62
2023-05-23T21:00:12.754Z,62.76
2023-05-23T21:02:59.466Z,62.67
2023-05-23T21:05:45.831Z,62.51
2023-05-23T21:08:34.537Z,62.67
2023-05-23T21:11:22.293Z,62.74
2023-05-23T21:14:09.043Z,62.74
2023-05-23T21:16:55.860Z,62.71
2023-05-23T21:19:42.261Z,62.84
2023-05-23T21:22:28.887Z,63.08
2023-05-23T21:25:15.623Z,63.24
2023-05-23T21:28:02.465Z,63.31
2023-05-23T21:30:49.157Z,63.29
2023-05-23T21:33:35.549Z,63.33
2023-05-23T21:36:22.062Z,63.30
2023-05-23T21:39:08.508Z,63.22
2023-05-23T21:41:55.056Z,63.59
2023-05-23T21:44:41.665Z,63.60
2023-05-23T21:47:28.183Z,63.49
2023-05-23T21:50:14.514Z,63.74
2023-05-23T21:53:01.338Z,63.24
2023-05-23T21:55:48.152Z,63.26
2023-05-23T21:58:34.922Z,62.98
2023-05-23T22:01:22.100Z,63.04
2023-05-23T22:04:08.551Z,63.05
2023-05-23T22:06:55.008Z,63.01
2023-05-23T22:09:41.401Z,63.18
2023-05-23T22:12:28.799Z,63.51
2023-05-23T22:15:15.115Z,63.39
2023-05-23T22:18:01.777Z,63.65
2023-05-23T22:20:49.257Z,63.33
2023-05-23T22:23:37.473Z,63.82
2023-05-23T22:26:24.245Z,63.71
2023-05-23T22:29:11.178Z,63.95
2023-05-23T22:31:57.788Z,63.87
2023-05-23T22:34:45.701Z,64.05
2023-05-23T22:37:32.067Z,63.94
2023-05-23T22:40:18.499Z,64.17
2023-05-23T22:43:05.945Z,64.39
2023-05-23T22:45:52.574Z,64.30
2023-05-23T22:48:39.159Z,64.48
2023-05-23T22:51:25.399Z,64.61
2023-05-23T22:54:12.128Z,64.63
2023-05-23T22:56:58.648Z,64.92
2023-05-23T22:59:45.201Z,64.98
2023-05-23T23:02:31.988Z,64.87
2023-05-23T23:05:18.615Z,64.91
2023-05-23T23:08:05.116Z,65.01
2023-05-23T23:10:51.765Z,65.03
2023-05-23T23:13:38.246Z,65.05
2023-05-23T23:16:26.178Z,65.08
2023-05-23T23:19:16.800Z,65.32
2023-05-23T23:22:04.307Z,65.31
2023-05-23T23:24:50.958Z,65.13
2023-05-23T23:27:38.179Z,65.17
2023-05-23T23:30:24.745Z,65.29
2023-05-23T23:33:11.992Z,65.28
2023-05-23T23:35:58.668Z,65.39
2023-05-23T23:38:45.183Z,65.24
2023-05-23T23:41:31.466Z,65.02
2023-05-23T23:44:18.265Z,64.96
2023-05-23T23:47:04.852Z,64.89
2023-05-23T23:49:51.326Z,64.95
2023-05-23T23:52:38.953Z,64.79
2023-05-23T23:55:25.588Z,64.66
2023-05-23T23:58:12.210Z,64.72
